createdAt,value
2019-02-21T02:26:22.963Z,74.30
2019-02-21T02:28:52.058Z,74.30
2019-02-21T02:31:23.594Z,73.90
2019-02-21T02:33:54.094Z,73.80
2019-02-21T02:36:23.756Z,73.70
2019-02-21T02:38:52.853Z,73.80
2019-02-21T02:41:22.072Z,74.00
2019-02-21T02:43:51.306Z,74.00
2019-02-21T02:46:20.587Z,73.90
2019-02-21T02:48:49.789Z,73.60
2019-02-21T02:51:18.898Z,73.30
2019-02-21T02:53:48.092Z,72.70
2019-02-21T02:56:17.348Z,73.20
2019-02-21T02:58:46.596Z,73.10
2019-02-21T03:01:15.866Z,73.60
2019-02-21T03:03:46.769Z,74.30
2019-02-21T03:06:15.947Z,74.00
2019-02-21T03:08:45.317Z,73.70
2019-02-21T03:11:14.476Z,73.40
2019-02-21T03:13:43.628Z,73.30
2019-02-21T03:16:12.766Z,72.90
2019-02-21T03:18:41.964Z,72.90
2019-02-21T03:21:12.163Z,72.80
2019-02-21T03:23:41.263Z,72.60
2019-02-21T03:26:10.382Z,72.70
2019-02-21T03:28:39.521Z,72.90
2019-02-21T03:31:09.096Z,72.90
2019-02-21T03:33:38.197Z,73.10
2019-02-21T03:36:07.375Z,73.40
2019-02-21T03:38:37.135Z,73.50
2019-02-21T03:41:06.302Z,73.50
2019-02-21T03:43:35.488Z,73.50
2019-02-21T03:46:04.699Z,74.00
2019-02-21T03:48:33.853Z,74.00
2019-02-21T03:51:03.079Z,73.70
2019-02-21T03:53:32.364Z,73.90
2019-02-21T03:56:03.403Z,73.80
2019-02-21T03:58:32.540Z,73.60
2019-02-21T04:01:21.250Z,73.50
2019-02-21T04:03:50.365Z,73.80
2019-02-21T04:06:19.537Z,73.90
2019-02-21T04:08:48.683Z,74.00
2019-02-21T04:11:17.807Z,74.20
2019-02-21T04:13:47.189Z,74.80
2019-02-21T04:16:16.524Z,73.90
2019-02-21T04:18:45.680Z,74.00
2019-02-21T04:21:14.907Z,73.80
2019-02-21T04:23:44.019Z,73.60
2019-02-21T04:26:13.194Z,73.50
2019-02-21T04:28:42.295Z,73.50
2019-02-21T04:31:11.491Z,73.40
2019-02-21T04:33:40.679Z,73.20
2019-02-21T04:36:10.451Z,73.90
2019-02-21T04:38:39.580Z,72.90
2019-02-21T04:41:09.336Z,72.50
2019-02-21T04:43:38.462Z,72.50
2019-02-21T04:46:07.895Z,72.50
2019-02-21T04:48:37.412Z,72.30
2019-02-21T04:51:06.537Z,72.20
2019-02-21T04:53:35.662Z,72.30
2019-02-21T04:56:04.842Z,72.10
2019-02-21T04:58:33.962Z,71.90
2019-02-21T05:01:05.791Z,71.50
2019-02-21T05:03:34.883Z,71.40
2019-02-21T05:06:04.072Z,71.30
2019-02-21T05:08:33.167Z,71.50
2019-02-21T05:11:02.296Z,72.10
2019-02-21T05:13:33.653Z,71.30
2019-02-21T05:16:03.419Z,70.90
2019-02-21T05:18:32.546Z,71.00
2019-02-21T05:21:02.524Z,71.50
2019-02-21T05:23:31.627Z,70.70
2019-02-21T05:26:02.539Z,70.40
2019-02-21T05:28:32.234Z,70.60
2019-02-21T05:31:02.957Z,70.60
2019-02-21T05:33:36.620Z,70.50
2019-02-21T05:36:07.362Z,70.40
2019-02-21T05:38:50.805Z,70.20
2019-02-21T05:41:24.656Z,70.30
2019-02-21T05:44:01.388Z,70.30
2019-02-21T05:46:32.145Z,70.50
2019-02-21T05:49:05.969Z,70.30
2019-02-21T05:51:36.731Z,70.20
2019-02-21T05:54:12.595Z,70.10
2019-02-21T05:56:51.434Z,70.00
2019-02-21T05:59:28.915Z,70.10
2019-02-21T06:02:03.453Z,71.30
2019-02-21T06:04:40.016Z,70.50
2019-02-21T06:07:22.980Z,70.50
2019-02-21T06:09:57.182Z,70.50
2019-02-21T06:12:33.933Z,70.50
2019-02-21T06:15:18.444Z,70.50
2019-02-21T06:17:49.786Z,70.80
2019-02-21T06:20:20.548Z,71.60
2019-02-21T06:22:57.286Z,71.40
2019-02-21T06:25:50.776Z,71.20
2019-02-21T06:28:12.959Z,71.40
2019-02-21T06:30:43.703Z,71.60
2019-02-21T06:33:12.824Z,71.10
2019-02-21T06:35:41.953Z,71.70
2019-02-21T06:38:11.724Z,71.60
2019-02-21T06:40:40.822Z,71.40
2019-02-21T06:43:10.515Z,71.40
2019-02-21T06:45:40.182Z,71.30
2019-02-21T06:48:09.376Z,72.10
2019-02-21T06:50:39.075Z,71.20
2019-02-21T06:53:08.223Z,70.90
2019-02-21T06:55:38.550Z,71.00
2019-02-21T06:58:07.674Z,71.10
2019-02-21T07:00:37.681Z,70.70
2019-02-21T07:03:15.484Z,71.00
2019-02-21T07:05:38.515Z,70.70
2019-02-21T07:08:08.824Z,70.50
2019-02-21T07:10:38.215Z,70.50
2019-02-21T07:13:07.642Z,70.20
2019-02-21T07:15:36.766Z,70.00
2019-02-21T07:18:05.858Z,70.30
2019-02-21T07:20:34.970Z,70.30
2019-02-21T07:23:04.078Z,70.20
2019-02-21T07:25:34.840Z,70.10
2019-02-21T07:28:12.254Z,70.60
2019-02-21T07:30:35.421Z,70.50
2019-02-21T07:33:05.022Z,70.70
2019-02-21T07:35:34.127Z,71.20
2019-02-21T07:38:04.778Z,71.30
2019-02-21T07:40:33.911Z,71.50
2019-02-21T07:43:15.376Z,71.40
2019-02-21T07:45:44.499Z,71.60
2019-02-21T07:48:13.645Z,71.20
2019-02-21T07:50:42.747Z,71.40
2019-02-21T07:53:11.872Z,71.00
2019-02-21T07:55:41.542Z,71.40
2019-02-21T07:58:10.681Z,72.00
2019-02-21T08:00:39.778Z,71.90
2019-02-21T08:03:09.300Z,71.80
2019-02-21T08:05:58.109Z,70.80
2019-02-21T08:08:27.790Z,71.10
2019-02-21T08:10:57.455Z,71.10
2019-02-21T08:13:26.649Z,70.30
2019-02-21T08:15:55.750Z,70.40
2019-02-21T08:18:24.885Z,70.30
2019-02-21T08:20:53.986Z,69.00
2019-02-21T08:23:23.106Z,70.00
2019-02-21T08:25:52.775Z,69.00
2019-02-21T08:28:21.884Z,68.70
2019-02-21T08:30:51.014Z,68.60
2019-02-21T08:33:24.783Z,68.70
2019-02-21T08:35:54.293Z,68.70
2019-02-21T08:38:24.683Z,68.60
2019-02-21T08:40:54.055Z,70.00
2019-02-21T08:43:23.159Z,70.50
2019-02-21T08:45:52.266Z,70.50
2019-02-21T08:48:21.394Z,70.50
2019-02-21T08:50:50.497Z,69.40
2019-02-21T08:53:19.629Z,69.20
2019-02-21T08:55:48.726Z,69.10
2019-02-21T08:58:17.868Z,69.00
2019-02-21T09:00:47.767Z,69.20
2019-02-21T09:03:18.110Z,69.30
2019-02-21T09:05:47.409Z,69.80
2019-02-21T09:08:16.881Z,69.30
2019-02-21T09:10:46.107Z,70.00
2019-02-21T09:13:15.805Z,69.00
2019-02-21T09:15:46.601Z,68.80
2019-02-21T09:18:15.955Z,69.40
2019-02-21T09:20:47.731Z,68.60
2019-02-21T09:23:16.797Z,68.40
2019-02-21T09:25:45.914Z,68.40
2019-02-21T09:28:15.843Z,67.90
2019-02-21T09:30:46.047Z,67.90
2019-02-21T09:33:17.794Z,67.90
2019-02-21T09:35:45.975Z,68.20
2019-02-21T09:38:15.079Z,68.10
2019-02-21T09:40:44.207Z,68.10
2019-02-21T09:43:13.878Z,68.00
2019-02-21T09:45:43.004Z,68.10
2019-02-21T09:48:12.230Z,69.00
2019-02-21T09:50:41.690Z,68.00
2019-02-21T09:53:10.819Z,67.80
2019-02-21T09:55:39.913Z,67.70
2019-02-21T09:58:09.614Z,67.50
2019-02-21T10:00:38.747Z,67.80
2019-02-21T10:03:07.842Z,68.10
2019-02-21T10:05:37.643Z,68.30
2019-02-21T10:08:06.960Z,68.50
2019-02-21T10:10:36.067Z,68.50
2019-02-21T10:13:05.188Z,68.00
2019-02-21T10:15:34.313Z,67.60
2019-02-21T10:18:03.516Z,68.00
2019-02-21T10:20:32.978Z,67.90
2019-02-21T10:23:02.107Z,67.40
2019-02-21T10:25:31.407Z,67.40
2019-02-21T10:28:00.539Z,67.10
2019-02-21T10:30:29.671Z,67.20
2019-02-21T10:32:58.783Z,67.10
2019-02-21T10:35:27.910Z,67.10
2019-02-21T10:37:57.051Z,67.00
2019-02-21T10:40:26.168Z,66.50
2019-02-21T10:42:55.249Z,66.50
2019-02-21T10:45:24.858Z,66.50
2019-02-21T10:47:53.987Z,66.10
2019-02-21T10:50:23.093Z,66.10
2019-02-21T10:52:52.221Z,66.50
2019-02-21T10:55:21.975Z,66.00
2019-02-21T10:57:51.123Z,65.80
2019-02-21T11:00:22.563Z,65.50
2019-02-21T11:02:51.744Z,64.60
2019-02-21T11:05:20.846Z,64.40
2019-02-21T11:07:49.983Z,64.40
2019-02-21T11:10:22.371Z,63.80
2019-02-21T11:12:51.482Z,64.00
2019-02-21T11:15:23.406Z,63.90
2019-02-21T11:17:52.505Z,64.50
2019-02-21T11:20:22.054Z,64.00
2019-02-21T11:22:51.379Z,63.50
2019-02-21T11:25:20.473Z,63.40
2019-02-21T11:27:49.576Z,62.40
2019-02-21T11:30:19.640Z,62.60
2019-02-21T11:32:48.767Z,61.50
2019-02-21T11:35:17.871Z,61.90
2019-02-21T11:37:47.600Z,61.40
2019-02-21T11:40:17.751Z,61.20
2019-02-21T11:42:46.911Z,59.40
2019-02-21T11:45:16.978Z,58.70
2019-02-21T11:47:46.069Z,59.10
2019-02-21T11:50:18.845Z,58.90
2019-02-21T11:52:49.600Z,58.70
2019-02-21T11:55:23.159Z,58.50
2019-02-21T11:57:52.292Z,58.40
2019-02-21T12:00:28.777Z,59.00
2019-02-21T12:02:57.906Z,59.10
2019-02-21T12:05:31.020Z,59.50
2019-02-21T12:07:58.001Z,58.80
2019-02-21T12:10:27.133Z,59.80
2019-02-21T12:12:56.928Z,59.50
2019-02-21T12:15:26.045Z,59.40
2019-02-21T12:17:55.134Z,59.40
2019-02-21T12:20:24.267Z,59.30
2019-02-21T12:22:53.366Z,59.00
2019-02-21T12:25:24.688Z,59.30
2019-02-21T12:27:54.130Z,59.70
2019-02-21T12:30:23.307Z,60.40
2019-02-21T12:32:52.429Z,60.10
2019-02-21T12:35:29.611Z,60.20
2019-02-21T12:37:52.933Z,60.70
2019-02-21T12:40:23.687Z,61.10
2019-02-21T12:42:52.795Z,61.30
2019-02-21T12:45:24.158Z,61.60
2019-02-21T12:47:54.297Z,61.40
2019-02-21T12:50:23.663Z,60.80
2019-02-21T12:52:52.774Z,60.50
2019-02-21T12:55:28.232Z,60.90
2019-02-21T12:57:52.973Z,60.30
2019-02-21T13:00:22.448Z,60.10
2019-02-21T13:02:51.578Z,60.30
2019-02-21T13:05:21.259Z,60.40
2019-02-21T13:07:51.541Z,60.70
2019-02-21T13:10:24.705Z,60.90
2019-02-21T13:12:53.836Z,60.80
2019-02-21T13:15:22.943Z,60.90
2019-02-21T13:17:52.066Z,60.90
2019-02-21T13:20:21.176Z,61.00
2019-02-21T13:22:50.302Z,61.20
2019-02-21T13:25:19.997Z,61.40
2019-02-21T13:27:49.101Z,61.30
2019-02-21T13:30:18.925Z,61.40
2019-02-21T13:32:48.035Z,61.80
2019-02-21T13:35:17.142Z,62.70
2019-02-21T13:37:46.607Z,62.00
2019-02-21T13:40:16.578Z,62.20
2019-02-21T13:42:46.542Z,62.20
2019-02-21T13:45:17.757Z,62.00
2019-02-21T13:47:48.025Z,61.60
2019-02-21T13:50:19.483Z,61.70
2019-02-21T13:52:49.167Z,61.40
2019-02-21T13:55:18.269Z,61.50
2019-02-21T13:57:48.535Z,61.70
2019-02-21T14:00:19.717Z,62.00
2019-02-21T14:02:48.811Z,61.80
2019-02-21T14:05:17.918Z,61.60
2019-02-21T14:07:47.051Z,61.80
2019-02-21T14:10:16.547Z,62.00
2019-02-21T14:12:45.667Z,61.80
2019-02-21T14:15:23.399Z,61.80
2019-02-21T14:17:53.102Z,62.10
2019-02-21T14:20:22.765Z,61.90
2019-02-21T14:22:52.466Z,62.00
2019-02-21T14:25:21.577Z,62.40
2019-02-21T14:27:50.718Z,62.60
2019-02-21T14:30:21.173Z,62.60
2019-02-21T14:32:50.265Z,62.70
2019-02-21T14:35:19.425Z,62.60
2019-02-21T14:37:48.687Z,63.40
2019-02-21T14:40:18.493Z,62.70
2019-02-21T14:42:47.829Z,62.70
2019-02-21T14:45:19.049Z,62.50
2019-02-21T14:47:48.159Z,62.60
2019-02-21T14:50:17.854Z,62.70
2019-02-21T14:52:47.025Z,62.70
2019-02-21T14:55:17.906Z,62.20
2019-02-21T14:57:47.214Z,62.00
2019-02-21T15:00:23.898Z,61.80
2019-02-21T15:02:53.032Z,61.60
2019-02-21T15:05:22.135Z,61.50
2019-02-21T15:07:51.267Z,61.70
2019-02-21T15:10:20.392Z,61.90
2019-02-21T15:12:50.078Z,62.40
2019-02-21T15:15:26.520Z,62.20
2019-02-21T15:18:06.602Z,62.40
2019-02-21T15:20:36.167Z,62.20
2019-02-21T15:22:57.861Z,61.90
2019-02-21T15:25:28.114Z,61.80
2019-02-21T15:27:57.222Z,61.60
2019-02-21T15:30:27.680Z,61.10
2019-02-21T15:32:56.771Z,61.90
2019-02-21T15:35:25.878Z,62.70
2019-02-21T15:37:55.181Z,63.30
2019-02-21T15:40:24.279Z,64.90
2019-02-21T15:42:53.416Z,63.80
2019-02-21T15:45:25.812Z,63.40
2019-02-21T15:47:54.946Z,63.50
2019-02-21T15:50:24.085Z,64.00
2019-02-21T15:52:55.015Z,63.60
2019-02-21T15:55:24.115Z,63.90
2019-02-21T15:58:03.456Z,63.50
2019-02-21T16:00:25.349Z,63.60
2019-02-21T16:02:55.024Z,63.90
2019-02-21T16:05:24.158Z,65.30
2019-02-21T16:07:53.298Z,65.10
2019-02-21T16:10:29.622Z,66.90
2019-02-21T16:12:59.209Z,66.20
2019-02-21T16:15:28.548Z,66.10
2019-02-21T16:17:58.262Z,66.50
2019-02-21T16:20:27.975Z,66.50
2019-02-21T16:22:58.971Z,66.40
2019-02-21T16:25:32.743Z,66.00
2019-02-21T16:28:02.501Z,66.10
2019-02-21T16:30:31.639Z,66.20
2019-02-21T16:33:02.549Z,66.20
2019-02-21T16:35:32.229Z,66.30
2019-02-21T16:38:04.260Z,66.80
2019-02-21T16:40:34.338Z,66.20
2019-02-21T16:43:03.474Z,65.70
2019-02-21T16:45:42.969Z,65.20
2019-02-21T16:48:04.896Z,65.60
2019-02-21T16:50:34.003Z,65.80
2019-02-21T16:53:04.526Z,65.60
2019-02-21T16:55:34.207Z,65.50
2019-02-21T16:58:04.191Z,65.90
2019-02-21T17:00:47.487Z,65.70
2019-02-21T17:03:04.538Z,65.40
2019-02-21T17:05:33.675Z,65.20
2019-02-21T17:08:04.474Z,65.20
2019-02-21T17:10:33.577Z,65.60
2019-02-21T17:13:02.724Z,65.40
2019-02-21T17:15:31.862Z,65.40
2019-02-21T17:18:03.674Z,65.50
2019-02-21T17:20:32.680Z,65.70
2019-02-21T17:23:01.780Z,65.70
2019-02-21T17:25:30.886Z,65.90
2019-02-21T17:28:00.021Z,66.10
2019-02-21T17:30:29.743Z,66.90
2019-02-21T17:32:58.855Z,66.20
2019-02-21T17:35:28.280Z,66.40
2019-02-21T17:37:57.414Z,66.50
2019-02-21T17:40:26.788Z,66.50
2019-02-21T17:43:08.214Z,66.70
2019-02-21T17:45:37.318Z,66.70
2019-02-21T17:48:06.468Z,66.70
2019-02-21T17:50:35.576Z,66.80
2019-02-21T17:53:04.715Z,66.70
2019-02-21T17:55:33.835Z,67.50
2019-02-21T17:58:04.467Z,66.80
2019-02-21T18:00:35.248Z,67.10
2019-02-21T18:03:07.734Z,67.20
2019-02-21T18:05:36.885Z,67.10
2019-02-21T18:08:06.548Z,67.10
2019-02-21T18:10:36.322Z,67.00
2019-02-21T18:13:05.462Z,67.00
2019-02-21T18:15:34.566Z,67.00
2019-02-21T18:18:04.854Z,67.20
2019-02-21T18:20:33.951Z,67.30
2019-02-21T18:23:03.345Z,67.40
2019-02-21T18:25:35.629Z,67.00
2019-02-21T18:28:04.737Z,68.00
2019-02-21T18:30:33.865Z,68.10
2019-02-21T18:33:03.006Z,67.70
2019-02-21T18:35:32.118Z,68.10
2019-02-21T18:38:02.358Z,67.60
2019-02-21T18:40:31.463Z,67.50
2019-02-21T18:43:02.066Z,67.40
2019-02-21T18:45:31.162Z,67.20
2019-02-21T18:48:00.265Z,67.30
2019-02-21T18:50:38.146Z,67.30
2019-02-21T18:53:02.335Z,67.30
2019-02-21T18:55:32.044Z,67.50
2019-02-21T18:58:01.149Z,67.70
2019-02-21T19:00:30.654Z,67.70
2019-02-21T19:03:00.354Z,67.60
2019-02-21T19:05:35.711Z,67.60
2019-02-21T19:08:05.185Z,67.40
2019-02-21T19:10:32.080Z,67.20
2019-02-21T19:13:01.874Z,67.50
2019-02-21T19:15:31.948Z,67.50
2019-02-21T19:18:01.263Z,67.20
2019-02-21T19:20:30.396Z,67.20
2019-02-21T19:22:59.505Z,67.20
2019-02-21T19:25:28.593Z,67.30
2019-02-21T19:27:57.763Z,67.40
2019-02-21T19:30:41.887Z,67.20
2019-02-21T19:33:11.031Z,67.10
2019-02-21T19:35:40.172Z,67.50
2019-02-21T19:38:10.963Z,68.50
2019-02-21T19:40:40.484Z,68.30
2019-02-21T19:43:09.596Z,69.10
2019-02-21T19:45:39.261Z,69.90
2019-02-21T19:48:08.397Z,70.00
2019-02-21T19:50:37.537Z,70.10
2019-02-21T19:53:06.665Z,70.40
2019-02-21T19:55:35.772Z,70.10
2019-02-21T19:58:04.913Z,70.30
2019-02-21T20:00:35.687Z,71.30
2019-02-21T20:03:05.726Z,71.20
2019-02-21T20:05:34.839Z,71.50
2019-02-21T20:08:08.555Z,72.40
2019-02-21T20:10:36.106Z,73.30
2019-02-21T20:13:06.882Z,74.80
2019-02-21T20:15:35.993Z,76.10
2019-02-21T20:18:05.089Z,75.80
2019-02-21T20:20:34.226Z,75.00
2019-02-21T20:23:03.897Z,76.40
2019-02-21T20:25:33.038Z,76.40
2019-02-21T20:28:02.426Z,75.50
2019-02-21T20:30:32.135Z,76.20
2019-02-21T20:33:01.646Z,76.30
2019-02-21T20:35:32.056Z,77.00
2019-02-21T20:38:02.090Z,76.20
2019-02-21T20:40:31.200Z,75.80
2019-02-21T20:43:00.594Z,76.40
2019-02-21T20:45:29.774Z,76.30
2019-02-21T20:47:58.878Z,76.70
2019-02-21T20:50:29.082Z,76.80
2019-02-21T20:52:58.190Z,77.00
2019-02-21T20:55:27.327Z,77.40
2019-02-21T20:57:56.471Z,77.40
2019-02-21T21:00:25.583Z,77.00
2019-02-21T21:02:54.790Z,77.20
2019-02-21T21:05:24.454Z,77.70
2019-02-21T21:07:53.566Z,77.40
2019-02-21T21:10:23.756Z,76.90
2019-02-21T21:12:53.450Z,77.50
2019-02-21T21:15:22.596Z,76.60
2019-02-21T21:17:51.737Z,76.50
2019-02-21T21:20:21.409Z,76.40
2019-02-21T21:22:50.538Z,76.30
2019-02-21T21:25:19.638Z,76.40
2019-02-21T21:27:48.771Z,76.80
2019-02-21T21:30:18.349Z,76.80
2019-02-21T21:32:47.560Z,77.10
2019-02-21T21:35:16.692Z,77.20
2019-02-21T21:37:45.832Z,77.30
2019-02-21T21:40:16.307Z,77.20
2019-02-21T21:42:45.758Z,77.10
2019-02-21T21:45:16.336Z,77.60
2019-02-21T21:47:45.471Z,77.50
2019-02-21T21:50:16.442Z,77.40
2019-02-21T21:52:45.576Z,77.40
2019-02-21T21:55:14.679Z,77.90
2019-02-21T21:57:43.978Z,78.10
2019-02-21T22:00:19.010Z,78.20
2019-02-21T22:02:48.278Z,78.60
2019-02-21T22:05:17.493Z,78.20
2019-02-21T22:07:49.088Z,78.70
2019-02-21T22:10:17.422Z,78.50
2019-02-21T22:12:47.113Z,78.80
2019-02-21T22:15:19.478Z,78.70
2019-02-21T22:17:48.610Z,79.00
2019-02-21T22:20:18.677Z,79.40
2019-02-21T22:22:47.812Z,79.80
2019-02-21T22:25:17.477Z,80.30
2019-02-21T22:27:46.588Z,80.50
2019-02-21T22:30:18.514Z,80.20
2019-02-21T22:32:47.648Z,80.20
2019-02-21T22:35:17.245Z,80.40
2019-02-21T22:37:46.370Z,80.50
2019-02-21T22:40:16.702Z,80.60
2019-02-21T22:42:45.830Z,80.90
2019-02-21T22:45:14.959Z,80.80
2019-02-21T22:47:44.066Z,80.70
2019-02-21T22:50:15.346Z,80.80
2019-02-21T22:52:44.434Z,81.10
2019-02-21T22:55:13.571Z,81.20
2019-02-21T22:57:42.670Z,81.40
2019-02-21T23:00:31.811Z,81.30
2019-02-21T23:03:02.540Z,81.30
2019-02-21T23:05:55.843Z,81.40
2019-02-21T23:08:44.050Z,82.00
2019-02-21T23:11:14.160Z,82.00
2019-02-21T23:14:02.835Z,82.00
